Terminal Aerodrome Forecast
Issued by NWS

Home | Current Version | Previous Version | Text Only | Print | Product List | Glossary On
Versions: 1 2 3 4 5 6 7 8 9 10 11 12 13 14 15 16 17
000
FTUS46 KEKA 280524
TAFCEC
TAF
KCEC 280524Z 2806/2906 15014KT P6SM SCT020 BKN050
     FM281000 15016KT P6SM -RA SCT015 OVC025
     FM281200 14018G28KT 6SM -RA BKN035 OVC050
     FM282200 16015KT P6SM -RA OVC035=

USA.gov is the U.S. government's official web portal to all federal, state and local government web resources and services.